createdAt,value
2017-09-19T00:00:19.127Z,101049.89
2017-09-19T00:02:54.461Z,101049.83
2017-09-19T00:05:29.346Z,101053.59
2017-09-19T00:08:04.455Z,101054.00
2017-09-19T00:10:39.590Z,101051.33
2017-09-19T00:13:14.370Z,101056.19
2017-09-19T00:15:49.380Z,101048.45
2017-09-19T00:18:24.291Z,101061.70
2017-09-19T00:20:59.083Z,101057.94
2017-09-19T00:23:34.451Z,101060.36
2017-09-19T00:26:09.388Z,101067.37
2017-09-19T00:28:44.514Z,101057.41
2017-09-19T00:31:19.359Z,101058.83
2017-09-19T00:33:54.439Z,101055.56
2017-09-19T00:36:29.275Z,101058.57
2017-09-19T00:39:03.643Z,101056.81
2017-09-19T00:41:39.021Z,101053.63
2017-09-19T00:44:13.995Z,101051.96
2017-09-19T00:46:49.038Z,101051.52
2017-09-19T00:49:23.877Z,101043.71
2017-09-19T00:51:58.171Z,101045.56
2017-09-19T00:54:33.345Z,101047.25
2017-09-19T00:57:08.903Z,101050.70
2017-09-19T00:59:43.051Z,101054.52
2017-09-19T01:02:17.451Z,101054.92
2017-09-19T01:04:52.480Z,101051.66
2017-09-19T01:07:27.274Z,101058.94
2017-09-19T01:10:01.567Z,101059.19
2017-09-19T01:12:36.347Z,101060.36
2017-09-19T01:15:10.919Z,101055.22
2017-09-19T01:17:45.475Z,101051.38
2017-09-19T01:20:19.955Z,101053.42
2017-09-19T01:22:54.731Z,101061.36
2017-09-19T01:25:29.634Z,101056.78
2017-09-19T01:28:04.681Z,101054.88
2017-09-19T01:30:39.984Z,101055.69
2017-09-19T01:33:15.068Z,101055.94
2017-09-19T01:35:50.099Z,101051.45
2017-09-19T01:38:25.033Z,101050.08
2017-09-19T01:40:59.802Z,101056.19
2017-09-19T01:43:34.811Z,101055.34
2017-09-19T01:46:10.117Z,101063.97
2017-09-19T01:48:45.035Z,101070.86
2017-09-19T01:51:19.097Z,101055.97
2017-09-19T01:53:54.409Z,101059.11
2017-09-19T01:56:29.275Z,101062.40
2017-09-19T01:59:04.415Z,101061.12
2017-09-19T02:01:39.359Z,101052.71
2017-09-19T02:04:14.547Z,101052.74
2017-09-19T02:06:49.416Z,101055.02
2017-09-19T02:09:24.352Z,101051.60
2017-09-19T02:11:59.072Z,101048.22
2017-09-19T02:14:33.907Z,101052.55
2017-09-19T02:17:08.995Z,101052.38
2017-09-19T02:19:43.484Z,101050.90
2017-09-19T02:22:18.201Z,101050.72
2017-09-19T02:24:53.436Z,101048.20
2017-09-19T02:27:28.366Z,101052.16
2017-09-19T02:30:03.371Z,101053.98
2017-09-19T02:32:38.272Z,101050.31
2017-09-19T02:35:13.298Z,101054.73
2017-09-19T02:37:48.295Z,101058.97
2017-09-19T02:40:23.191Z,101056.97
2017-09-19T02:42:58.106Z,101062.30
2017-09-19T02:45:33.038Z,101053.87
2017-09-19T02:48:07.967Z,101051.20
2017-09-19T02:50:42.820Z,101052.87
2017-09-19T02:53:17.714Z,101048.26
2017-09-19T02:55:52.608Z,101049.05
2017-09-19T02:58:27.216Z,101052.14
2017-09-19T03:01:02.307Z,101049.51
2017-09-19T03:03:37.254Z,101055.80
2017-09-19T03:06:12.320Z,101050.86
2017-09-19T03:08:46.845Z,101050.86
2017-09-19T03:11:22.151Z,101051.48
2017-09-19T03:13:56.943Z,101048.29
2017-09-19T03:16:31.762Z,101050.52
2017-09-19T03:19:06.884Z,101048.60
2017-09-19T03:21:41.939Z,101045.84
2017-09-19T03:24:16.731Z,101044.69
2017-09-19T03:26:51.639Z,101044.69
2017-09-19T03:29:26.088Z,101046.63
2017-09-19T03:32:00.800Z,101044.56
2017-09-19T03:34:35.820Z,101047.50
2017-09-19T03:37:11.083Z,101045.56
2017-09-19T03:39:46.208Z,101045.69
2017-09-19T03:42:21.278Z,101046.91
2017-09-19T03:44:56.587Z,101049.98
2017-09-19T03:47:31.772Z,101049.27
2017-09-19T03:50:06.815Z,101045.00
2017-09-19T03:52:41.727Z,101045.03
2017-09-19T03:55:16.523Z,101054.59
2017-09-19T03:57:51.639Z,101053.81
2017-09-19T04:00:26.472Z,101057.48
2017-09-19T04:03:01.572Z,101053.52
2017-09-19T04:05:36.259Z,101055.38
2017-09-19T04:08:11.142Z,101054.94
2017-09-19T04:10:45.799Z,101059.42
2017-09-19T04:13:20.887Z,101053.72
2017-09-19T04:15:55.700Z,101055.19
2017-09-19T04:18:30.908Z,101059.86
2017-09-19T04:21:05.712Z,101059.73
2017-09-19T04:23:40.543Z,101060.55
2017-09-19T04:26:16.669Z,101061.67
2017-09-19T04:28:50.816Z,101063.84
2017-09-19T04:31:26.308Z,101063.25
2017-09-19T04:34:00.896Z,101062.37
2017-09-19T04:36:35.939Z,101068.89
2017-09-19T04:39:11.110Z,101063.63
2017-09-19T04:41:46.252Z,101067.98
2017-09-19T04:44:20.735Z,101071.18
2017-09-19T04:46:55.774Z,101082.88
2017-09-19T04:49:30.950Z,101074.66
2017-09-19T04:52:06.170Z,101080.37
2017-09-19T04:54:41.151Z,101088.73
2017-09-19T04:57:15.965Z,101085.98
2017-09-19T04:59:50.646Z,101085.07
2017-09-19T05:02:25.358Z,101087.11
2017-09-19T05:05:00.330Z,101095.20
2017-09-19T05:07:35.367Z,101093.88
2017-09-19T05:10:10.375Z,101099.59
2017-09-19T05:12:45.132Z,101099.88
2017-09-19T05:15:20.380Z,101092.45
2017-09-19T05:17:55.211Z,101099.73
2017-09-19T05:20:30.262Z,101095.02
2017-09-19T05:23:05.210Z,101101.58
2017-09-19T05:25:40.170Z,101100.56
2017-09-19T05:28:15.195Z,101099.69
2017-09-19T05:30:49.963Z,101099.47
2017-09-19T05:33:24.908Z,101099.74
2017-09-19T05:35:59.719Z,101106.06
2017-09-19T05:38:34.783Z,101108.16
2017-09-19T05:41:09.540Z,101105.17
2017-09-19T05:43:44.739Z,101105.03
2017-09-19T05:46:19.916Z,101103.60
2017-09-19T05:48:54.819Z,101110.92
2017-09-19T05:51:29.663Z,101113.37
2017-09-19T05:54:05.123Z,101119.80
2017-09-19T05:56:39.943Z,101116.80
2017-09-19T05:59:14.804Z,101122.41
2017-09-19T06:01:49.803Z,101128.44
2017-09-19T06:04:25.319Z,101121.13
2017-09-19T06:07:00.016Z,101125.84
2017-09-19T06:09:34.292Z,101121.70
2017-09-19T06:12:09.339Z,101126.19
2017-09-19T06:14:44.147Z,101128.72
2017-09-19T06:17:18.876Z,101134.63
2017-09-19T06:19:53.616Z,101129.60
2017-09-19T06:22:28.558Z,101125.67
2017-09-19T06:25:03.000Z,101134.33
2017-09-19T06:27:38.220Z,101131.03
2017-09-19T06:30:12.751Z,101128.16
2017-09-19T06:32:47.367Z,101126.31
2017-09-19T06:35:21.559Z,101132.02
2017-09-19T06:37:56.727Z,101133.61
2017-09-19T06:40:31.663Z,101140.14
2017-09-19T06:43:05.979Z,101141.02
2017-09-19T06:45:40.846Z,101145.09
2017-09-19T06:48:15.931Z,101149.30
2017-09-19T06:50:50.975Z,101151.53
2017-09-19T06:53:25.807Z,101153.40
2017-09-19T06:56:01.031Z,101154.02
2017-09-19T06:58:36.023Z,101159.00
2017-09-19T07:01:11.133Z,101162.04
2017-09-19T07:03:46.360Z,101171.45
2017-09-19T07:06:21.388Z,101169.67
2017-09-19T07:08:56.538Z,101168.27
2017-09-19T07:11:31.487Z,101171.74
2017-09-19T07:14:06.003Z,101175.73
2017-09-19T07:16:41.655Z,101179.06
2017-09-19T07:19:16.463Z,101179.73
2017-09-19T07:21:51.468Z,101176.69
2017-09-19T07:24:27.293Z,101189.91
2017-09-19T07:27:02.224Z,101187.16
2017-09-19T07:29:37.255Z,101191.77
2017-09-19T07:32:13.100Z,101196.88
2017-09-19T07:34:47.769Z,101197.39
2017-09-19T07:37:22.740Z,101200.97
2017-09-19T07:39:57.594Z,101193.44
2017-09-19T07:42:32.516Z,101195.45
2017-09-19T07:45:07.125Z,101191.58
2017-09-19T07:47:42.043Z,101195.45
2017-09-19T07:50:17.048Z,101193.56
2017-09-19T07:52:52.018Z,101192.16
2017-09-19T07:55:27.011Z,101191.55
2017-09-19T07:58:01.696Z,101203.13
2017-09-19T08:00:36.055Z,101201.99
2017-09-19T08:03:10.910Z,101204.58
2017-09-19T08:05:46.043Z,101202.17
2017-09-19T08:08:20.735Z,101208.16
2017-09-19T08:10:55.543Z,101205.70
2017-09-19T08:13:30.499Z,101205.70
2017-09-19T08:16:05.788Z,101204.98
2017-09-19T08:18:40.206Z,101209.42
2017-09-19T08:21:15.213Z,101213.55
2017-09-19T08:23:50.123Z,101215.88
2017-09-19T08:26:25.542Z,101218.21
2017-09-19T08:29:00.680Z,101218.58
2017-09-19T08:31:36.306Z,101216.72
2017-09-19T08:34:11.102Z,101225.27
2017-09-19T08:36:45.923Z,101224.29
2017-09-19T08:39:20.882Z,101224.38
2017-09-19T08:41:55.781Z,101235.92
2017-09-19T08:44:30.586Z,101238.11
2017-09-19T08:47:06.186Z,101236.39
2017-09-19T08:49:41.227Z,101238.95
2017-09-19T08:52:15.852Z,101238.14
2017-09-19T08:54:50.989Z,101241.73
2017-09-19T08:57:26.383Z,101244.38
2017-09-19T09:00:01.544Z,101248.87
2017-09-19T09:02:36.338Z,101241.21
2017-09-19T09:05:12.440Z,101245.42
2017-09-19T09:07:47.175Z,101243.75
2017-09-19T09:10:21.979Z,101248.94
2017-09-19T09:12:57.148Z,101254.53
2017-09-19T09:15:32.183Z,101254.69
2017-09-19T09:18:07.116Z,101253.83
2017-09-19T09:20:41.919Z,101254.66
2017-09-19T09:23:16.755Z,101263.43
2017-09-19T09:25:51.751Z,101259.44
2017-09-19T09:28:26.747Z,101265.45
2017-09-19T09:31:01.781Z,101270.59
2017-09-19T09:33:36.973Z,101272.28
2017-09-19T09:36:12.014Z,101268.56
2017-09-19T09:38:46.915Z,101270.10
2017-09-19T09:41:21.790Z,101264.41
2017-09-19T09:43:56.567Z,101266.94
2017-09-19T09:46:31.147Z,101271.88
2017-09-19T09:49:06.173Z,101271.23
2017-09-19T09:51:40.785Z,101267.69
2017-09-19T09:54:15.531Z,101270.42
2017-09-19T09:56:49.780Z,101270.59
2017-09-19T09:59:24.807Z,101274.61
2017-09-19T10:01:59.932Z,101268.52
2017-09-19T10:04:34.744Z,101272.61
2017-09-19T10:07:09.455Z,101269.14
2017-09-19T10:09:44.853Z,101267.52
2017-09-19T10:12:19.588Z,101259.98
2017-09-19T10:14:54.357Z,101262.47
2017-09-19T10:17:29.761Z,101255.14
2017-09-19T10:20:04.347Z,101255.09
2017-09-19T10:22:39.146Z,101248.79
2017-09-19T10:25:14.040Z,101249.13
2017-09-19T10:27:48.947Z,101240.25
2017-09-19T10:30:23.623Z,101244.34
2017-09-19T10:32:58.570Z,101254.36
2017-09-19T10:35:33.012Z,101248.56
2017-09-19T10:38:08.026Z,101242.12
2017-09-19T10:40:42.910Z,101252.73
2017-09-19T10:43:17.944Z,101244.78
2017-09-19T10:45:52.454Z,101247.39
2017-09-19T10:48:26.982Z,101250.92
2017-09-19T10:51:02.504Z,101251.27
2017-09-19T10:53:37.458Z,101251.34
2017-09-19T10:56:12.133Z,101254.58
2017-09-19T10:58:47.068Z,101253.41
2017-09-19T11:01:21.819Z,101252.50
2017-09-19T11:03:56.634Z,101254.73
2017-09-19T11:06:31.594Z,101268.83
2017-09-19T11:09:05.980Z,101265.80
2017-09-19T11:11:41.021Z,101270.48
2017-09-19T11:14:15.735Z,101258.14
2017-09-19T11:16:50.540Z,101265.53
2017-09-19T11:19:25.463Z,101258.08
2017-09-19T11:22:00.372Z,101259.78
2017-09-19T11:24:35.166Z,101255.97
2017-09-19T11:27:10.004Z,101258.17
2017-09-19T11:29:45.651Z,101258.23
2017-09-19T11:32:21.191Z,101258.41
2017-09-19T11:34:56.459Z,101257.62
2017-09-19T11:37:31.320Z,101261.05
2017-09-19T11:40:06.244Z,101259.22
2017-09-19T11:42:41.395Z,101256.45
2017-09-19T11:45:16.092Z,101258.96
2017-09-19T11:47:51.107Z,101261.16
2017-09-19T11:50:26.355Z,101259.69
2017-09-19T11:53:01.452Z,101259.69
2017-09-19T11:55:36.256Z,101261.91
2017-09-19T11:58:11.051Z,101266.23
2017-09-19T12:00:46.086Z,101258.72
2017-09-19T12:03:20.806Z,101255.42
2017-09-19T12:05:55.498Z,101257.77
2017-09-19T12:08:30.512Z,101266.58
2017-09-19T12:11:05.332Z,101273.52
2017-09-19T12:13:40.135Z,101272.55
2017-09-19T12:16:14.863Z,101265.97
2017-09-19T12:18:49.694Z,101268.00
2017-09-19T12:21:24.714Z,101271.88
2017-09-19T12:23:59.606Z,101265.98
2017-09-19T12:26:34.436Z,101270.08
2017-09-19T12:29:09.289Z,101265.44
2017-09-19T12:31:43.980Z,101268.81
2017-09-19T12:34:19.015Z,101269.86
2017-09-19T12:36:53.844Z,101267.51
2017-09-19T12:39:28.771Z,101270.05
2017-09-19T12:42:03.680Z,101267.34
2017-09-19T12:44:38.578Z,101270.87
2017-09-19T12:47:13.283Z,101267.34
2017-09-19T12:49:51.895Z,101274.48
2017-09-19T12:52:26.888Z,101280.41
2017-09-19T12:55:02.144Z,101278.49
2017-09-19T12:57:36.723Z,101283.01
2017-09-19T13:00:11.532Z,101284.27
2017-09-19T13:02:46.728Z,101281.28
2017-09-19T13:05:21.435Z,101279.12
2017-09-19T13:07:56.502Z,101280.91
2017-09-19T13:10:30.919Z,101282.63
2017-09-19T13:13:06.026Z,101290.23
2017-09-19T13:15:41.639Z,101287.33
2017-09-19T13:18:16.899Z,101293.95
2017-09-19T13:20:51.925Z,101286.89
2017-09-19T13:23:26.518Z,101291.61
2017-09-19T13:26:01.518Z,101285.95
2017-09-19T13:28:36.416Z,101287.17
2017-09-19T13:31:22.503Z,101279.45
2017-09-19T13:36:30.704Z,101279.16
2017-09-19T13:39:05.803Z,101280.48
2017-09-19T13:41:41.090Z,101277.81
2017-09-19T13:44:15.740Z,101279.00
2017-09-19T13:46:50.351Z,101287.84
2017-09-19T13:49:25.442Z,101291.97
2017-09-19T13:52:00.281Z,101291.16
2017-09-19T13:54:34.988Z,101292.31
2017-09-19T13:57:09.885Z,101295.92
2017-09-19T13:59:44.607Z,101289.77
2017-09-19T14:02:19.459Z,101281.08
2017-09-19T14:04:54.384Z,101279.77
2017-09-19T14:07:29.311Z,101289.09
2017-09-19T14:10:03.783Z,101281.01
2017-09-19T14:12:38.437Z,101285.50
2017-09-19T14:15:13.261Z,101286.30
2017-09-19T14:17:48.194Z,101284.39
2017-09-19T14:20:23.081Z,101280.01
2017-09-19T14:22:57.863Z,101276.38
2017-09-19T14:25:32.659Z,101274.16
2017-09-19T14:28:07.571Z,101281.66
2017-09-19T14:30:42.481Z,101283.64
2017-09-19T14:33:17.362Z,101283.14
2017-09-19T14:35:52.275Z,101280.45
2017-09-19T14:38:27.327Z,101275.30
2017-09-19T14:41:02.435Z,101269.66
2017-09-19T14:43:37.463Z,101279.62
2017-09-19T14:46:12.392Z,101268.28
2017-09-19T14:48:47.192Z,101268.91
2017-09-19T14:51:22.200Z,101265.69
2017-09-19T14:53:56.975Z,101264.72
2017-09-19T14:56:31.813Z,101260.14
2017-09-19T14:59:07.731Z,101258.25
2017-09-19T15:01:42.574Z,101256.11
2017-09-19T15:04:17.206Z,101258.73
2017-09-19T15:06:52.211Z,101265.95
2017-09-19T15:09:26.919Z,101267.87
2017-09-19T15:12:01.847Z,101262.88
2017-09-19T15:14:36.616Z,101260.53
2017-09-19T15:17:11.812Z,101270.19
2017-09-19T15:19:46.955Z,101264.63
2017-09-19T15:22:22.449Z,101270.45
2017-09-19T15:24:57.348Z,101261.92
2017-09-19T15:27:32.062Z,101268.69
2017-09-19T15:30:06.928Z,101270.24
2017-09-19T15:32:41.728Z,101276.41
2017-09-19T15:35:16.282Z,101277.58
2017-09-19T15:37:52.210Z,101273.77
2017-09-19T15:40:26.907Z,101279.94
2017-09-19T15:43:01.415Z,101286.89
2017-09-19T15:45:36.120Z,101282.50
2017-09-19T15:48:11.056Z,101281.32
2017-09-19T15:50:45.959Z,101280.23
2017-09-19T15:53:20.722Z,101283.06
2017-09-19T15:55:55.515Z,101279.81
2017-09-19T15:58:30.207Z,101284.59
2017-09-19T16:01:04.596Z,101288.98
2017-09-19T16:03:40.620Z,101283.53
2017-09-19T16:06:15.499Z,101293.25
2017-09-19T16:08:50.379Z,101287.89
2017-09-19T16:11:25.260Z,101292.44
2017-09-19T16:14:00.098Z,101291.19
2017-09-19T16:16:34.517Z,101291.45
2017-09-19T16:19:09.210Z,101292.52
2017-09-19T16:21:43.970Z,101298.41
2017-09-19T16:24:18.591Z,101295.41
2017-09-19T16:26:53.320Z,101305.69
2017-09-19T16:29:28.103Z,101301.87
2017-09-19T16:32:03.147Z,101299.52
2017-09-19T16:34:37.755Z,101311.73
2017-09-19T16:37:12.598Z,101311.81
2017-09-19T16:39:47.484Z,101312.78
2017-09-19T16:42:22.200Z,101319.15
2017-09-19T16:44:56.910Z,101318.44
2017-09-19T16:47:31.779Z,101316.51
2017-09-19T16:50:06.659Z,101320.62
2017-09-19T16:52:41.466Z,101323.13
2017-09-19T16:55:16.087Z,101332.05
2017-09-19T16:57:50.880Z,101328.31
2017-09-19T17:00:25.519Z,101331.90
2017-09-19T17:03:00.198Z,101331.48
2017-09-19T17:05:34.952Z,101329.20
2017-09-19T17:08:09.832Z,101334.89
2017-09-19T17:10:44.642Z,101341.58
2017-09-19T17:13:19.380Z,101336.50
2017-09-19T17:15:54.203Z,101342.62
2017-09-19T17:18:29.141Z,101344.37
2017-09-19T17:21:03.794Z,101350.83
2017-09-19T17:23:38.358Z,101358.28
2017-09-19T17:26:13.556Z,101356.88
2017-09-19T17:28:48.580Z,101360.02
2017-09-19T17:31:23.323Z,101367.23
2017-09-19T17:33:58.929Z,101369.95
2017-09-19T17:36:34.186Z,101368.85
2017-09-19T17:39:08.663Z,101370.83
2017-09-19T17:41:43.697Z,101377.36
2017-09-19T17:44:18.719Z,101374.84
2017-09-19T17:46:53.395Z,101378.81
2017-09-19T17:49:28.550Z,101377.36
2017-09-19T17:52:03.590Z,101374.12
2017-09-19T17:54:39.229Z,101376.63
2017-09-19T17:57:13.776Z,101371.31
2017-09-19T17:59:48.666Z,101380.16
2017-09-19T18:02:23.451Z,101376.37
2017-09-19T18:04:58.204Z,101387.64
2017-09-19T18:07:33.003Z,101384.89
2017-09-19T18:10:07.716Z,101394.03
2017-09-19T18:12:42.802Z,101392.75
2017-09-19T18:15:17.692Z,101405.67
2017-09-19T18:17:52.824Z,101407.80
2017-09-19T18:20:27.710Z,101416.96
2017-09-19T18:23:02.574Z,101400.74
2017-09-19T18:25:38.555Z,101397.11
2017-09-19T18:28:13.344Z,101402.14
2017-09-19T18:30:48.050Z,101402.98
2017-09-19T18:33:22.705Z,101413.34
2017-09-19T18:35:57.355Z,101413.41
2017-09-19T18:38:32.586Z,101428.27
2017-09-19T18:41:12.403Z,101423.77
2017-09-19T18:43:47.316Z,101424.10
2017-09-19T18:46:21.979Z,101425.21
2017-09-19T18:48:56.959Z,101419.73
2017-09-19T18:51:31.887Z,101428.25
2017-09-19T18:54:06.847Z,101427.65
2017-09-19T18:56:41.688Z,101426.31
2017-09-19T18:59:16.590Z,101426.70
2017-09-19T19:01:51.585Z,101424.50
2017-09-19T19:04:26.429Z,101426.94
2017-09-19T19:07:02.411Z,101424.22
2017-09-19T19:09:37.219Z,101431.02
2017-09-19T19:12:12.135Z,101431.94
2017-09-19T19:14:46.977Z,101432.22
2017-09-19T19:17:21.824Z,101430.39
2017-09-19T19:19:56.755Z,101429.48
2017-09-19T19:22:31.743Z,101432.30
2017-09-19T19:28:36.674Z,101433.63
2017-09-19T19:31:12.967Z,101432.31
2017-09-19T19:33:47.830Z,101431.91
2017-09-19T19:36:22.849Z,101431.61
2017-09-19T19:38:57.441Z,101434.92
2017-09-19T19:41:32.386Z,101438.85
2017-09-19T19:44:07.395Z,101439.36
2017-09-19T19:46:42.329Z,101438.38
2017-09-19T19:49:17.705Z,101434.80
2017-09-19T19:51:52.277Z,101435.81
2017-09-19T19:54:27.281Z,101438.89
2017-09-19T19:57:02.499Z,101447.33
2017-09-19T19:59:37.260Z,101444.08
2017-09-19T20:02:12.030Z,101444.76
2017-09-19T20:04:46.743Z,101441.84
2017-09-19T20:07:21.384Z,101449.66
2017-09-19T20:09:56.482Z,101451.77
2017-09-19T20:12:31.439Z,101458.97
2017-09-19T20:15:06.267Z,101456.02
2017-09-19T20:17:41.466Z,101450.73
2017-09-19T20:20:16.395Z,101460.34
2017-09-19T20:22:51.370Z,101450.35
2017-09-19T20:25:26.293Z,101449.87
2017-09-19T20:28:01.036Z,101453.41
2017-09-19T20:30:35.954Z,101452.63
2017-09-19T20:33:10.875Z,101456.68
2017-09-19T20:35:45.773Z,101456.67
2017-09-19T20:38:20.749Z,101457.27
2017-09-19T20:40:55.712Z,101457.89
2017-09-19T20:43:30.745Z,101462.03
2017-09-19T20:46:05.684Z,101458.77
2017-09-19T20:48:40.762Z,101462.30
2017-09-19T20:51:15.754Z,101459.95
2017-09-19T20:53:50.775Z,101466.98
2017-09-19T20:56:25.739Z,101466.38
2017-09-19T20:59:00.625Z,101471.83
2017-09-19T21:01:37.431Z,101472.81
2017-09-19T21:04:18.091Z,101465.80
2017-09-19T21:06:58.745Z,101464.02
2017-09-19T21:09:39.462Z,101462.41
2017-09-19T21:12:20.236Z,101465.23
2017-09-19T21:15:00.867Z,101461.47
2017-09-19T21:17:41.621Z,101456.44
2017-09-19T21:20:15.350Z,101461.91
2017-09-19T21:22:49.778Z,101458.67
2017-09-19T21:25:24.784Z,101464.27
2017-09-19T21:27:59.782Z,101458.97
2017-09-19T21:30:35.075Z,101456.70
2017-09-19T21:33:10.074Z,101448.88
2017-09-19T21:35:45.123Z,101451.05
2017-09-19T21:38:20.049Z,101449.56
2017-09-19T21:40:55.044Z,101441.39
2017-09-19T21:43:29.851Z,101433.75
2017-09-19T21:46:04.780Z,101437.94
2017-09-19T21:48:39.439Z,101444.33
2017-09-19T21:51:14.777Z,101442.28
2017-09-19T21:53:50.091Z,101440.39
2017-09-19T21:56:25.671Z,101441.47
2017-09-19T21:59:00.379Z,101435.44
2017-09-19T22:01:34.944Z,101434.49
2017-09-19T22:04:09.773Z,101442.01
2017-09-19T22:06:44.998Z,101448.39
2017-09-19T22:09:19.915Z,101441.70
2017-09-19T22:11:55.001Z,101451.66
2017-09-19T22:14:29.894Z,101440.13
2017-09-19T22:17:04.749Z,101438.61
2017-09-19T22:19:39.606Z,101439.41
2017-09-19T22:22:14.843Z,101437.33
2017-09-19T22:24:49.562Z,101437.33
2017-09-19T22:27:24.308Z,101447.33
2017-09-19T22:29:59.317Z,101446.06
2017-09-19T22:32:34.306Z,101443.23
2017-09-19T22:35:09.305Z,101441.98
2017-09-19T22:37:44.246Z,101441.30
2017-09-19T22:40:20.059Z,101441.58
2017-09-19T22:42:54.890Z,101443.39
2017-09-19T22:45:29.905Z,101436.52
2017-09-19T22:48:04.675Z,101437.58
2017-09-19T22:50:39.500Z,101441.48
2017-09-19T22:53:15.074Z,101436.98
2017-09-19T22:55:49.715Z,101438.80
2017-09-19T22:58:24.415Z,101438.02
2017-09-19T23:00:59.023Z,101435.72
2017-09-19T23:03:33.949Z,101440.22
2017-09-19T23:06:08.935Z,101436.98
2017-09-19T23:08:44.013Z,101431.83
2017-09-19T23:11:19.024Z,101430.81
2017-09-19T23:13:53.631Z,101430.25
2017-09-19T23:16:28.261Z,101426.63
2017-09-19T23:19:03.223Z,101428.48
2017-09-19T23:21:38.118Z,101425.09
2017-09-19T23:24:12.916Z,101426.13
2017-09-19T23:26:47.696Z,101428.64
2017-09-19T23:29:22.411Z,101431.84
2017-09-19T23:31:57.255Z,101439.38
2017-09-19T23:34:31.467Z,101438.80
2017-09-19T23:37:05.881Z,101441.38
2017-09-19T23:39:40.672Z,101439.53
2017-09-19T23:42:15.739Z,101444.02
2017-09-19T23:44:50.662Z,101441.50
2017-09-19T23:47:25.363Z,101446.78
2017-09-19T23:50:00.281Z,101445.24
2017-09-19T23:52:35.503Z,101436.13
2017-09-19T23:55:10.343Z,101432.88
2017-09-19T23:57:45.449Z,101428.55
